sensor_id;sensor_type;location;lat;lon;timestamp;P1;durP1;ratioP1;P2;durP2;ratioP2
3259;SDS011;68938;48.150;14.004;2023-06-26T00:00:19;15.43;;;11.97;;
3259;SDS011;68938;48.150;14.004;2023-06-26T00:02:46;15.13;;;13.00;;
3259;SDS011;68938;48.150;14.004;2023-06-26T00:05:14;15.33;;;13.73;;
3259;SDS011;68938;48.150;14.004;2023-06-26T00:07:41;14.43;;;13.03;;
3259;SDS011;68938;48.150;14.004;2023-06-26T00:10:08;15.40;;;13.90;;
3259;SDS011;68938;48.150;14.004;2023-06-26T00:12:35;14.10;;;12.90;;
3259;SDS011;68938;48.150;14.004;2023-06-26T00:15:02;13.77;;;12.37;;
3259;SDS011;68938;48.150;14.004;2023-06-26T00:17:29;14.80;;;13.20;;
3259;SDS011;68938;48.150;14.004;2023-06-26T00:19:56;14.93;;;12.80;;
3259;SDS011;68938;48.150;14.004;2023-06-26T00:22:23;15.07;;;13.70;;
3259;SDS011;68938;48.150;14.004;2023-06-26T00:24:50;14.33;;;12.90;;
3259;SDS011;68938;48.150;14.004;2023-06-26T00:27:17;13.27;;;11.93;;
3259;SDS011;68938;48.150;14.004;2023-06-26T00:29:44;13.77;;;12.27;;
3259;SDS011;68938;48.150;14.004;2023-06-26T00:32:11;14.73;;;12.60;;
3259;SDS011;68938;48.150;14.004;2023-06-26T00:34:38;13.77;;;12.33;;
3259;SDS011;68938;48.150;14.004;2023-06-26T00:37:04;16.60;;;12.77;;
3259;SDS011;68938;48.150;14.004;2023-06-26T00:39:31;13.80;;;12.30;;
3259;SDS011;68938;48.150;14.004;2023-06-26T00:41:58;15.23;;;13.67;;
3259;SDS011;68938;48.150;14.004;2023-06-26T00:44:25;13.40;;;12.00;;
3259;SDS011;68938;48.150;14.004;2023-06-26T00:46:52;13.47;;;12.13;;
3259;SDS011;68938;48.150;14.004;2023-06-26T00:49:20;13.50;;;12.17;;
3259;SDS011;68938;48.150;14.004;2023-06-26T00:51:47;14.23;;;12.10;;
3259;SDS011;68938;48.150;14.004;2023-06-26T00:54:15;14.20;;;12.83;;
3259;SDS011;68938;48.150;14.004;2023-06-26T00:56:42;14.70;;;13.03;;
3259;SDS011;68938;48.150;14.004;2023-06-26T00:59:09;14.63;;;12.73;;
3259;SDS011;68938;48.150;14.004;2023-06-26T01:01:35;12.87;;;11.67;;
3259;SDS011;68938;48.150;14.004;2023-06-26T01:04:02;14.57;;;13.07;;
3259;SDS011;68938;48.150;14.004;2023-06-26T01:06:30;14.53;;;13.17;;
3259;SDS011;68938;48.150;14.004;2023-06-26T01:08:59;14.93;;;13.43;;
3259;SDS011;68938;48.150;14.004;2023-06-26T01:11:26;12.80;;;11.50;;
3259;SDS011;68938;48.150;14.004;2023-06-26T01:13:53;14.23;;;13.00;;
3259;SDS011;68938;48.150;14.004;2023-06-26T01:16:23;18.97;;;12.00;;
3259;SDS011;68938;48.150;14.004;2023-06-26T01:18:51;14.87;;;13.10;;
3259;SDS011;68938;48.150;14.004;2023-06-26T01:21:19;12.83;;;11.60;;
3259;SDS011;68938;48.150;14.004;2023-06-26T01:24:01;13.90;;;12.53;;
3259;SDS011;68938;48.150;14.004;2023-06-26T01:26:36;13.67;;;12.37;;
3259;SDS011;68938;48.150;14.004;2023-06-26T01:29:05;16.00;;;12.27;;
3259;SDS011;68938;48.150;14.004;2023-06-26T01:31:34;13.50;;;12.20;;
3259;SDS011;68938;48.150;14.004;2023-06-26T01:34:02;13.70;;;11.37;;
3259;SDS011;68938;48.150;14.004;2023-06-26T01:36:29;13.93;;;12.63;;
3259;SDS011;68938;48.150;14.004;2023-06-26T01:38:56;14.90;;;12.30;;
3259;SDS011;68938;48.150;14.004;2023-06-26T01:41:23;14.43;;;12.97;;
3259;SDS011;68938;48.150;14.004;2023-06-26T01:52:14;12.97;;;11.77;;
3259;SDS011;68938;48.150;14.004;2023-06-26T01:57:51;13.70;;;12.20;;
3259;SDS011;68938;48.150;14.004;2023-06-26T02:00:22;13.30;;;11.97;;
3259;SDS011;68938;48.150;14.004;2023-06-26T02:02:51;16.30;;;11.57;;
3259;SDS011;68938;48.150;14.004;2023-06-26T02:05:19;13.07;;;11.70;;
3259;SDS011;68938;48.150;14.004;2023-06-26T02:07:46;13.03;;;11.60;;
3259;SDS011;68938;48.150;14.004;2023-06-26T02:10:13;17.20;;;12.93;;
3259;SDS011;68938;48.150;14.004;2023-06-26T02:12:40;13.03;;;11.73;;
3259;SDS011;68938;48.150;14.004;2023-06-26T02:15:07;15.53;;;12.33;;
3259;SDS011;68938;48.150;14.004;2023-06-26T02:17:35;13.57;;;12.27;;
3259;SDS011;68938;48.150;14.004;2023-06-26T02:20:02;16.60;;;13.23;;
3259;SDS011;68938;48.150;14.004;2023-06-26T02:22:30;15.10;;;13.20;;
3259;SDS011;68938;48.150;14.004;2023-06-26T02:24:56;13.53;;;12.23;;
3259;SDS011;68938;48.150;14.004;2023-06-26T02:27:23;13.37;;;11.93;;
3259;SDS011;68938;48.150;14.004;2023-06-26T02:29:50;17.00;;;13.10;;
3259;SDS011;68938;48.150;14.004;2023-06-26T02:32:17;17.50;;;13.13;;
3259;SDS011;68938;48.150;14.004;2023-06-26T02:34:44;14.10;;;12.30;;
3259;SDS011;68938;48.150;14.004;2023-06-26T02:37:11;16.70;;;12.40;;
3259;SDS011;68938;48.150;14.004;2023-06-26T02:39:38;14.83;;;12.83;;
3259;SDS011;68938;48.150;14.004;2023-06-26T02:42:05;14.50;;;12.47;;
3259;SDS011;68938;48.150;14.004;2023-06-26T02:44:32;15.80;;;12.77;;
3259;SDS011;68938;48.150;14.004;2023-06-26T02:46:58;13.90;;;12.30;;
3259;SDS011;68938;48.150;14.004;2023-06-26T02:49:26;16.40;;;13.10;;
3259;SDS011;68938;48.150;14.004;2023-06-26T02:51:52;15.07;;;13.07;;
3259;SDS011;68938;48.150;14.004;2023-06-26T02:54:19;15.60;;;13.23;;
3259;SDS011;68938;48.150;14.004;2023-06-26T02:56:46;13.80;;;12.40;;
3259;SDS011;68938;48.150;14.004;2023-06-26T02:59:14;16.80;;;14.00;;
3259;SDS011;68938;48.150;14.004;2023-06-26T03:01:41;16.77;;;13.20;;
3259;SDS011;68938;48.150;14.004;2023-06-26T03:04:08;17.80;;;11.40;;
3259;SDS011;68938;48.150;14.004;2023-06-26T03:06:35;15.87;;;14.33;;
3259;SDS011;68938;48.150;14.004;2023-06-26T03:09:02;13.77;;;12.30;;
3259;SDS011;68938;48.150;14.004;2023-06-26T03:11:29;14.37;;;12.97;;
3259;SDS011;68938;48.150;14.004;2023-06-26T03:13:57;14.50;;;13.10;;
3259;SDS011;68938;48.150;14.004;2023-06-26T03:16:23;14.17;;;11.90;;
3259;SDS011;68938;48.150;14.004;2023-06-26T03:18:51;13.40;;;12.00;;
3259;SDS011;68938;48.150;14.004;2023-06-26T03:21:17;14.00;;;12.60;;
3259;SDS011;68938;48.150;14.004;2023-06-26T03:23:44;20.93;;;13.00;;
3259;SDS011;68938;48.150;14.004;2023-06-26T03:26:11;14.03;;;12.73;;
3259;SDS011;68938;48.150;14.004;2023-06-26T03:28:38;14.17;;;12.67;;
3259;SDS011;68938;48.150;14.004;2023-06-26T03:31:05;13.60;;;12.20;;
3259;SDS011;68938;48.150;14.004;2023-06-26T03:33:32;14.33;;;13.00;;
3259;SDS011;68938;48.150;14.004;2023-06-26T03:35:59;14.93;;;12.90;;
3259;SDS011;68938;48.150;14.004;2023-06-26T03:38:26;15.43;;;14.00;;
3259;SDS011;68938;48.150;14.004;2023-06-26T03:40:53;14.10;;;12.40;;
3259;SDS011;68938;48.150;14.004;2023-06-26T03:43:20;15.23;;;13.70;;
3259;SDS011;68938;48.150;14.004;2023-06-26T03:45:47;14.67;;;13.30;;
3259;SDS011;68938;48.150;14.004;2023-06-26T03:48:14;14.77;;;13.03;;
3259;SDS011;68938;48.150;14.004;2023-06-26T03:50:41;14.77;;;13.00;;
3259;SDS011;68938;48.150;14.004;2023-06-26T03:53:08;14.10;;;12.70;;
3259;SDS011;68938;48.150;14.004;2023-06-26T03:55:35;18.20;;;13.47;;
3259;SDS011;68938;48.150;14.004;2023-06-26T03:58:02;15.10;;;13.60;;
3259;SDS011;68938;48.150;14.004;2023-06-26T04:00:29;16.27;;;14.60;;
3259;SDS011;68938;48.150;14.004;2023-06-26T04:02:57;15.30;;;13.30;;
3259;SDS011;68938;48.150;14.004;2023-06-26T04:05:24;14.10;;;12.60;;
3259;SDS011;68938;48.150;14.004;2023-06-26T04:07:51;14.30;;;12.80;;
3259;SDS011;68938;48.150;14.004;2023-06-26T04:10:19;15.50;;;13.80;;
3259;SDS011;68938;48.150;14.004;2023-06-26T04:12:47;13.70;;;12.40;;
3259;SDS011;68938;48.150;14.004;2023-06-26T04:15:14;14.23;;;12.80;;
3259;SDS011;68938;48.150;14.004;2023-06-26T04:17:41;14.40;;;13.10;;
3259;SDS011;68938;48.150;14.004;2023-06-26T04:20:08;14.53;;;12.90;;
3259;SDS011;68938;48.150;14.004;2023-06-26T04:22:35;19.27;;;13.83;;
3259;SDS011;68938;48.150;14.004;2023-06-26T04:25:02;13.93;;;12.57;;
3259;SDS011;68938;48.150;14.004;2023-06-26T04:27:30;13.63;;;12.30;;
3259;SDS011;68938;48.150;14.004;2023-06-26T04:30:01;14.70;;;13.20;;
3259;SDS011;68938;48.150;14.004;2023-06-26T04:32:28;15.90;;;13.07;;
3259;SDS011;68938;48.150;14.004;2023-06-26T04:34:55;17.43;;;13.20;;
3259;SDS011;68938;48.150;14.004;2023-06-26T04:37:22;19.47;;;13.17;;
3259;SDS011;68938;48.150;14.004;2023-06-26T04:39:50;18.17;;;12.70;;
3259;SDS011;68938;48.150;14.004;2023-06-26T04:42:17;16.10;;;14.10;;
3259;SDS011;68938;48.150;14.004;2023-06-26T04:44:44;14.13;;;12.63;;
3259;SDS011;68938;48.150;14.004;2023-06-26T04:47:11;13.90;;;12.50;;
3259;SDS011;68938;48.150;14.004;2023-06-26T04:49:38;14.07;;;12.70;;
3259;SDS011;68938;48.150;14.004;2023-06-26T04:52:05;14.50;;;13.00;;
3259;SDS011;68938;48.150;14.004;2023-06-26T04:54:32;13.87;;;12.47;;
3259;SDS011;68938;48.150;14.004;2023-06-26T04:56:59;14.80;;;13.20;;
3259;SDS011;68938;48.150;14.004;2023-06-26T04:59:26;12.77;;;11.57;;
3259;SDS011;68938;48.150;14.004;2023-06-26T05:01:53;13.77;;;12.37;;
3259;SDS011;68938;48.150;14.004;2023-06-26T05:04:20;14.10;;;12.60;;
3259;SDS011;68938;48.150;14.004;2023-06-26T05:06:47;13.10;;;11.80;;
3259;SDS011;68938;48.150;14.004;2023-06-26T05:09:14;12.60;;;11.47;;
3259;SDS011;68938;48.150;14.004;2023-06-26T05:11:41;14.23;;;12.73;;
3259;SDS011;68938;48.150;14.004;2023-06-26T05:14:08;13.53;;;12.23;;
3259;SDS011;68938;48.150;14.004;2023-06-26T05:16:35;13.90;;;12.50;;
3259;SDS011;68938;48.150;14.004;2023-06-26T05:19:02;13.77;;;12.57;;
3259;SDS011;68938;48.150;14.004;2023-06-26T05:21:29;13.33;;;11.00;;
3259;SDS011;68938;48.150;14.004;2023-06-26T05:23:56;13.50;;;12.30;;
3259;SDS011;68938;48.150;14.004;2023-06-26T05:26:25;12.30;;;11.20;;
3259;SDS011;68938;48.150;14.004;2023-06-26T05:28:53;14.83;;;13.53;;
3259;SDS011;68938;48.150;14.004;2023-06-26T05:31:20;12.40;;;11.23;;
3259;SDS011;68938;48.150;14.004;2023-06-26T05:33:47;12.53;;;11.33;;
3259;SDS011;68938;48.150;14.004;2023-06-26T05:36:16;13.00;;;11.80;;
3259;SDS011;68938;48.150;14.004;2023-06-26T05:38:45;12.27;;;11.07;;
3259;SDS011;68938;48.150;14.004;2023-06-26T05:41:12;12.07;;;11.07;;
3259;SDS011;68938;48.150;14.004;2023-06-26T05:43:40;13.70;;;12.40;;
3259;SDS011;68938;48.150;14.004;2023-06-26T05:46:06;12.07;;;10.80;;
3259;SDS011;68938;48.150;14.004;2023-06-26T05:48:33;13.30;;;12.00;;
3259;SDS011;68938;48.150;14.004;2023-06-26T05:51:00;13.03;;;11.73;;
3259;SDS011;68938;48.150;14.004;2023-06-26T05:53:28;13.07;;;11.67;;
3259;SDS011;68938;48.150;14.004;2023-06-26T05:55:56;11.60;;;10.50;;
3259;SDS011;68938;48.150;14.004;2023-06-26T05:58:26;13.87;;;12.50;;
3259;SDS011;68938;48.150;14.004;2023-06-26T06:00:53;14.70;;;11.17;;
3259;SDS011;68938;48.150;14.004;2023-06-26T06:03:20;11.10;;;10.10;;
3259;SDS011;68938;48.150;14.004;2023-06-26T06:05:48;12.30;;;11.03;;
3259;SDS011;68938;48.150;14.004;2023-06-26T06:08:14;11.53;;;10.43;;
3259;SDS011;68938;48.150;14.004;2023-06-26T06:10:41;12.40;;;10.57;;
3259;SDS011;68938;48.150;14.004;2023-06-26T06:13:08;11.73;;;10.63;;
3259;SDS011;68938;48.150;14.004;2023-06-26T06:15:35;12.00;;;10.90;;
3259;SDS011;68938;48.150;14.004;2023-06-26T06:18:02;12.93;;;11.23;;
3259;SDS011;68938;48.150;14.004;2023-06-26T06:20:29;11.10;;;10.10;;
3259;SDS011;68938;48.150;14.004;2023-06-26T06:22:56;11.83;;;10.40;;
3259;SDS011;68938;48.150;14.004;2023-06-26T06:25:23;11.27;;;10.17;;
3259;SDS011;68938;48.150;14.004;2023-06-26T06:27:50;10.20;;;9.30;;
3259;SDS011;68938;48.150;14.004;2023-06-26T06:30:17;11.07;;;9.97;;
3259;SDS011;68938;48.150;14.004;2023-06-26T06:32:54;11.87;;;10.80;;
3259;SDS011;68938;48.150;14.004;2023-06-26T06:35:21;9.90;;;9.00;;
3259;SDS011;68938;48.150;14.004;2023-06-26T06:37:53;10.93;;;9.90;;
3259;SDS011;68938;48.150;14.004;2023-06-26T06:40:20;11.10;;;9.07;;
3259;SDS011;68938;48.150;14.004;2023-06-26T06:42:47;12.83;;;9.17;;
3259;SDS011;68938;48.150;14.004;2023-06-26T06:45:14;10.47;;;9.33;;
3259;SDS011;68938;48.150;14.004;2023-06-26T06:47:41;10.20;;;9.30;;
3259;SDS011;68938;48.150;14.004;2023-06-26T06:50:07;9.77;;;8.87;;
3259;SDS011;68938;48.150;14.004;2023-06-26T06:52:38;9.47;;;8.67;;
3259;SDS011;68938;48.150;14.004;2023-06-26T06:55:07;9.40;;;8.67;;
3259;SDS011;68938;48.150;14.004;2023-06-26T06:57:35;9.47;;;8.57;;
3259;SDS011;68938;48.150;14.004;2023-06-26T07:00:03;9.67;;;8.87;;
3259;SDS011;68938;48.150;14.004;2023-06-26T07:02:33;10.03;;;9.03;;
3259;SDS011;68938;48.150;14.004;2023-06-26T07:04:59;10.00;;;9.10;;
3259;SDS011;68938;48.150;14.004;2023-06-26T07:07:28;9.17;;;8.37;;
3259;SDS011;68938;48.150;14.004;2023-06-26T07:10:01;9.80;;;8.93;;
3259;SDS011;68938;48.150;14.004;2023-06-26T07:12:35;10.67;;;9.73;;
3259;SDS011;68938;48.150;14.004;2023-06-26T07:15:03;10.20;;;9.30;;
3259;SDS011;68938;48.150;14.004;2023-06-26T07:17:32;9.50;;;8.70;;
3259;SDS011;68938;48.150;14.004;2023-06-26T07:20:00;10.50;;;9.60;;
3259;SDS011;68938;48.150;14.004;2023-06-26T07:22:28;10.60;;;9.50;;
3259;SDS011;68938;48.150;14.004;2023-06-26T07:24:55;10.37;;;9.47;;
3259;SDS011;68938;48.150;14.004;2023-06-26T07:27:22;9.37;;;8.47;;
3259;SDS011;68938;48.150;14.004;2023-06-26T07:29:50;10.53;;;9.53;;
3259;SDS011;68938;48.150;14.004;2023-06-26T07:32:16;9.43;;;8.73;;
3259;SDS011;68938;48.150;14.004;2023-06-26T07:34:43;9.20;;;8.27;;
3259;SDS011;68938;48.150;14.004;2023-06-26T07:37:10;10.37;;;9.37;;
3259;SDS011;68938;48.150;14.004;2023-06-26T07:39:37;8.50;;;7.70;;
3259;SDS011;68938;48.150;14.004;2023-06-26T07:42:04;10.47;;;9.47;;
3259;SDS011;68938;48.150;14.004;2023-06-26T07:44:31;9.30;;;8.53;;
3259;SDS011;68938;48.150;14.004;2023-06-26T07:46:58;10.13;;;9.13;;
3259;SDS011;68938;48.150;14.004;2023-06-26T07:49:25;9.43;;;8.60;;
3259;SDS011;68938;48.150;14.004;2023-06-26T07:51:52;9.70;;;8.90;;
3259;SDS011;68938;48.150;14.004;2023-06-26T07:54:19;10.00;;;9.10;;
3259;SDS011;68938;48.150;14.004;2023-06-26T07:56:53;9.57;;;8.70;;
3259;SDS011;68938;48.150;14.004;2023-06-26T07:59:25;9.30;;;8.40;;
3259;SDS011;68938;48.150;14.004;2023-06-26T08:01:55;9.10;;;8.30;;
3259;SDS011;68938;48.150;14.004;2023-06-26T08:04:25;10.10;;;8.43;;
3259;SDS011;68938;48.150;14.004;2023-06-26T08:06:55;9.60;;;8.50;;
3259;SDS011;68938;48.150;14.004;2023-06-26T08:09:28;8.93;;;8.13;;
3259;SDS011;68938;48.150;14.004;2023-06-26T08:11:56;10.10;;;9.13;;
3259;SDS011;68938;48.150;14.004;2023-06-26T08:14:24;10.67;;;9.70;;
3259;SDS011;68938;48.150;14.004;2023-06-26T08:16:51;10.53;;;9.53;;
3259;SDS011;68938;48.150;14.004;2023-06-26T08:19:19;10.10;;;8.13;;
3259;SDS011;68938;48.150;14.004;2023-06-26T08:21:46;9.70;;;8.90;;
3259;SDS011;68938;48.150;14.004;2023-06-26T08:24:13;10.17;;;9.47;;
3259;SDS011;68938;48.150;14.004;2023-06-26T08:26:41;8.93;;;8.20;;
3259;SDS011;68938;48.150;14.004;2023-06-26T08:29:08;9.43;;;8.53;;
3259;SDS011;68938;48.150;14.004;2023-06-26T08:31:38;9.17;;;8.47;;
3259;SDS011;68938;48.150;14.004;2023-06-26T08:34:06;9.20;;;8.30;;
3259;SDS011;68938;48.150;14.004;2023-06-26T08:36:34;9.53;;;8.63;;
3259;SDS011;68938;48.150;14.004;2023-06-26T08:39:01;10.63;;;9.73;;
3259;SDS011;68938;48.150;14.004;2023-06-26T08:41:29;9.30;;;8.50;;
3259;SDS011;68938;48.150;14.004;2023-06-26T08:43:56;8.70;;;8.03;;
3259;SDS011;68938;48.150;14.004;2023-06-26T08:46:23;10.23;;;9.33;;
3259;SDS011;68938;48.150;14.004;2023-06-26T08:48:54;9.37;;;8.47;;
3259;SDS011;68938;48.150;14.004;2023-06-26T08:51:25;10.10;;;9.30;;
3259;SDS011;68938;48.150;14.004;2023-06-26T08:56:36;9.23;;;8.47;;
3259;SDS011;68938;48.150;14.004;2023-06-26T08:59:08;9.70;;;8.80;;
3259;SDS011;68938;48.150;14.004;2023-06-26T09:01:36;9.90;;;9.00;;
3259;SDS011;68938;48.150;14.004;2023-06-26T09:04:04;10.17;;;7.90;;
3259;SDS011;68938;48.150;14.004;2023-06-26T09:06:31;9.40;;;8.40;;
3259;SDS011;68938;48.150;14.004;2023-06-26T09:08:58;10.37;;;9.07;;
3259;SDS011;68938;48.150;14.004;2023-06-26T09:11:25;9.10;;;8.27;;
3259;SDS011;68938;48.150;14.004;2023-06-26T09:13:53;7.73;;;7.13;;
3259;SDS011;68938;48.150;14.004;2023-06-26T09:16:25;8.30;;;7.50;;
3259;SDS011;68938;48.150;14.004;2023-06-26T09:18:53;9.93;;;7.70;;
3259;SDS011;68938;48.150;14.004;2023-06-26T09:21:23;9.13;;;8.30;;
3259;SDS011;68938;48.150;14.004;2023-06-26T09:23:50;8.97;;;7.93;;
3259;SDS011;68938;48.150;14.004;2023-06-26T09:26:20;9.20;;;8.00;;
3259;SDS011;68938;48.150;14.004;2023-06-26T09:28:48;8.60;;;7.90;;
3259;SDS011;68938;48.150;14.004;2023-06-26T09:31:15;8.13;;;7.53;;
3259;SDS011;68938;48.150;14.004;2023-06-26T09:34:03;8.27;;;7.60;;
3259;SDS011;68938;48.150;14.004;2023-06-26T09:36:31;8.90;;;8.30;;
3259;SDS011;68938;48.150;14.004;2023-06-26T09:39:05;8.80;;;8.00;;
3259;SDS011;68938;48.150;14.004;2023-06-26T09:41:37;9.13;;;8.30;;
3259;SDS011;68938;48.150;14.004;2023-06-26T09:44:05;8.53;;;7.83;;
3259;SDS011;68938;48.150;14.004;2023-06-26T09:46:32;7.87;;;7.37;;
3259;SDS011;68938;48.150;14.004;2023-06-26T09:49:10;9.17;;;8.47;;
3259;SDS011;68938;48.150;14.004;2023-06-26T09:51:39;9.37;;;8.37;;
3259;SDS011;68938;48.150;14.004;2023-06-26T09:54:08;8.27;;;7.77;;
3259;SDS011;68938;48.150;14.004;2023-06-26T09:56:36;9.17;;;8.47;;
3259;SDS011;68938;48.150;14.004;2023-06-26T09:59:04;9.20;;;8.50;;
3259;SDS011;68938;48.150;14.004;2023-06-26T10:01:32;8.63;;;8.00;;
3259;SDS011;68938;48.150;14.004;2023-06-26T10:04:03;9.40;;;8.43;;
3259;SDS011;68938;48.150;14.004;2023-06-26T10:06:39;24.50;;;9.03;;
3259;SDS011;68938;48.150;14.004;2023-06-26T10:09:12;8.67;;;7.97;;
3259;SDS011;68938;48.150;14.004;2023-06-26T10:11:49;8.03;;;7.43;;
3259;SDS011;68938;48.150;14.004;2023-06-26T10:14:31;8.37;;;7.63;;
3259;SDS011;68938;48.150;14.004;2023-06-26T10:17:05;8.63;;;7.93;;
3259;SDS011;68938;48.150;14.004;2023-06-26T10:19:37;7.97;;;7.37;;
3259;SDS011;68938;48.150;14.004;2023-06-26T10:22:07;7.67;;;7.17;;
3259;SDS011;68938;48.150;14.004;2023-06-26T10:24:35;9.20;;;8.30;;
3259;SDS011;68938;48.150;14.004;2023-06-26T10:27:04;7.97;;;7.37;;
3259;SDS011;68938;48.150;14.004;2023-06-26T10:29:41;8.30;;;7.80;;
3259;SDS011;68938;48.150;14.004;2023-06-26T10:32:13;7.43;;;6.93;;
3259;SDS011;68938;48.150;14.004;2023-06-26T10:34:42;7.73;;;7.00;;
3259;SDS011;68938;48.150;14.004;2023-06-26T10:37:09;7.60;;;7.10;;
3259;SDS011;68938;48.150;14.004;2023-06-26T10:39:48;8.37;;;7.67;;
3259;SDS011;68938;48.150;14.004;2023-06-26T10:42:18;7.63;;;7.00;;
3259;SDS011;68938;48.150;14.004;2023-06-26T10:44:46;7.53;;;7.03;;
3259;SDS011;68938;48.150;14.004;2023-06-26T10:47:30;7.37;;;6.87;;
3259;SDS011;68938;48.150;14.004;2023-06-26T10:53:11;7.90;;;7.30;;
3259;SDS011;68938;48.150;14.004;2023-06-26T10:55:37;7.80;;;7.30;;
3259;SDS011;68938;48.150;14.004;2023-06-26T11:03:38;7.17;;;6.67;;
3259;SDS011;68938;48.150;14.004;2023-06-26T11:08:44;6.67;;;6.17;;
3259;SDS011;68938;48.150;14.004;2023-06-26T11:11:15;7.90;;;7.20;;
3259;SDS011;68938;48.150;14.004;2023-06-26T11:13:44;7.43;;;6.93;;
3259;SDS011;68938;48.150;14.004;2023-06-26T11:16:13;6.87;;;6.43;;
3259;SDS011;68938;48.150;14.004;2023-06-26T11:18:41;7.30;;;6.80;;
3259;SDS011;68938;48.150;14.004;2023-06-26T11:21:09;7.37;;;6.87;;
3259;SDS011;68938;48.150;14.004;2023-06-26T11:23:38;7.77;;;7.27;;
3259;SDS011;68938;48.150;14.004;2023-06-26T11:26:13;7.57;;;7.07;;
3259;SDS011;68938;48.150;14.004;2023-06-26T11:28:48;6.83;;;6.30;;
3259;SDS011;68938;48.150;14.004;2023-06-26T11:31:24;8.50;;;7.90;;
3259;SDS011;68938;48.150;14.004;2023-06-26T11:33:56;7.80;;;7.20;;
3259;SDS011;68938;48.150;14.004;2023-06-26T11:36:28;7.83;;;7.13;;
3259;SDS011;68938;48.150;14.004;2023-06-26T11:38:56;7.60;;;7.10;;
3259;SDS011;68938;48.150;14.004;2023-06-26T11:41:27;6.70;;;6.33;;
3259;SDS011;68938;48.150;14.004;2023-06-26T11:44:01;8.30;;;7.70;;
3259;SDS011;68938;48.150;14.004;2023-06-26T11:46:31;7.23;;;6.73;;
3259;SDS011;68938;48.150;14.004;2023-06-26T11:49:02;8.00;;;7.17;;
3259;SDS011;68938;48.150;14.004;2023-06-26T11:51:35;8.20;;;7.60;;
3259;SDS011;68938;48.150;14.004;2023-06-26T11:54:02;7.33;;;6.73;;
3259;SDS011;68938;48.150;14.004;2023-06-26T11:56:30;8.17;;;7.47;;
3259;SDS011;68938;48.150;14.004;2023-06-26T11:59:04;7.83;;;7.23;;
3259;SDS011;68938;48.150;14.004;2023-06-26T12:01:41;8.10;;;7.40;;
3259;SDS011;68938;48.150;14.004;2023-06-26T12:04:10;8.00;;;7.43;;
3259;SDS011;68938;48.150;14.004;2023-06-26T12:06:41;7.20;;;6.70;;
3259;SDS011;68938;48.150;14.004;2023-06-26T12:09:15;8.47;;;7.77;;
3259;SDS011;68938;48.150;14.004;2023-06-26T12:11:46;8.67;;;7.97;;
3259;SDS011;68938;48.150;14.004;2023-06-26T12:14:15;7.87;;;7.23;;
3259;SDS011;68938;48.150;14.004;2023-06-26T12:16:43;8.17;;;7.57;;
3259;SDS011;68938;48.150;14.004;2023-06-26T12:19:10;8.93;;;8.13;;
3259;SDS011;68938;48.150;14.004;2023-06-26T12:24:06;8.50;;;7.70;;
3259;SDS011;68938;48.150;14.004;2023-06-26T12:26:35;8.43;;;7.80;;
3259;SDS011;68938;48.150;14.004;2023-06-26T12:29:04;7.90;;;7.30;;
3259;SDS011;68938;48.150;14.004;2023-06-26T12:31:35;7.93;;;7.33;;
3259;SDS011;68938;48.150;14.004;2023-06-26T12:34:08;7.53;;;6.83;;
3259;SDS011;68938;48.150;14.004;2023-06-26T12:36:43;7.40;;;6.90;;
3259;SDS011;68938;48.150;14.004;2023-06-26T12:39:24;8.30;;;7.70;;
3259;SDS011;68938;48.150;14.004;2023-06-26T12:41:52;7.20;;;6.80;;
3259;SDS011;68938;48.150;14.004;2023-06-26T12:44:32;8.00;;;7.40;;
3259;SDS011;68938;48.150;14.004;2023-06-26T12:46:59;7.70;;;7.20;;
3259;SDS011;68938;48.150;14.004;2023-06-26T12:49:37;7.23;;;6.73;;
3259;SDS011;68938;48.150;14.004;2023-06-26T12:52:10;6.70;;;6.30;;
3259;SDS011;68938;48.150;14.004;2023-06-26T12:54:40;6.80;;;6.40;;
3259;SDS011;68938;48.150;14.004;2023-06-26T12:57:09;8.37;;;7.77;;
3259;SDS011;68938;48.150;14.004;2023-06-26T12:59:37;7.27;;;6.67;;
3259;SDS011;68938;48.150;14.004;2023-06-26T13:02:04;6.70;;;6.20;;
3259;SDS011;68938;48.150;14.004;2023-06-26T13:04:32;7.33;;;6.63;;
3259;SDS011;68938;48.150;14.004;2023-06-26T13:06:59;7.07;;;6.67;;
3259;SDS011;68938;48.150;14.004;2023-06-26T13:09:26;7.03;;;6.53;;
3259;SDS011;68938;48.150;14.004;2023-06-26T13:11:58;6.40;;;6.00;;
3259;SDS011;68938;48.150;14.004;2023-06-26T13:14:26;7.43;;;6.70;;
3259;SDS011;68938;48.150;14.004;2023-06-26T13:16:53;6.77;;;6.20;;
3259;SDS011;68938;48.150;14.004;2023-06-26T13:19:20;6.67;;;6.27;;
3259;SDS011;68938;48.150;14.004;2023-06-26T13:21:47;6.20;;;5.80;;
3259;SDS011;68938;48.150;14.004;2023-06-26T13:24:14;6.53;;;6.10;;
3259;SDS011;68938;48.150;14.004;2023-06-26T13:26:41;7.03;;;6.43;;
3259;SDS011;68938;48.150;14.004;2023-06-26T13:29:08;6.50;;;6.10;;
3259;SDS011;68938;48.150;14.004;2023-06-26T13:31:35;5.77;;;5.37;;
3259;SDS011;68938;48.150;14.004;2023-06-26T13:34:02;6.73;;;6.23;;
3259;SDS011;68938;48.150;14.004;2023-06-26T13:36:29;6.80;;;6.30;;
3259;SDS011;68938;48.150;14.004;2023-06-26T13:38:56;5.93;;;5.60;;
3259;SDS011;68938;48.150;14.004;2023-06-26T13:41:23;6.63;;;6.23;;
3259;SDS011;68938;48.150;14.004;2023-06-26T13:43:51;6.90;;;6.40;;
3259;SDS011;68938;48.150;14.004;2023-06-26T13:46:23;6.73;;;5.93;;
3259;SDS011;68938;48.150;14.004;2023-06-26T13:48:50;6.27;;;5.87;;
3259;SDS011;68938;48.150;14.004;2023-06-26T13:51:17;5.90;;;5.50;;
3259;SDS011;68938;48.150;14.004;2023-06-26T13:53:44;6.77;;;6.20;;
3259;SDS011;68938;48.150;14.004;2023-06-26T13:56:11;6.50;;;6.10;;
3259;SDS011;68938;48.150;14.004;2023-06-26T13:58:38;6.50;;;6.00;;
3259;SDS011;68938;48.150;14.004;2023-06-26T14:01:05;6.30;;;5.90;;
3259;SDS011;68938;48.150;14.004;2023-06-26T14:03:32;7.43;;;6.00;;
3259;SDS011;68938;48.150;14.004;2023-06-26T14:05:59;6.37;;;5.97;;
3259;SDS011;68938;48.150;14.004;2023-06-26T14:08:26;7.00;;;6.53;;
3259;SDS011;68938;48.150;14.004;2023-06-26T14:10:53;6.70;;;6.23;;
3259;SDS011;68938;48.150;14.004;2023-06-26T14:13:20;7.40;;;6.90;;
3259;SDS011;68938;48.150;14.004;2023-06-26T14:15:49;6.20;;;5.80;;
3259;SDS011;68938;48.150;14.004;2023-06-26T14:18:16;6.63;;;6.23;;
3259;SDS011;68938;48.150;14.004;2023-06-26T14:20:43;7.00;;;6.50;;
3259;SDS011;68938;48.150;14.004;2023-06-26T14:23:10;6.20;;;5.80;;
3259;SDS011;68938;48.150;14.004;2023-06-26T14:25:37;7.13;;;6.50;;
3259;SDS011;68938;48.150;14.004;2023-06-26T14:28:04;7.17;;;6.53;;
3259;SDS011;68938;48.150;14.004;2023-06-26T14:30:31;6.77;;;6.07;;
3259;SDS011;68938;48.150;14.004;2023-06-26T14:32:58;6.93;;;6.33;;
3259;SDS011;68938;48.150;14.004;2023-06-26T14:35:25;7.43;;;6.70;;
3259;SDS011;68938;48.150;14.004;2023-06-26T14:37:52;6.83;;;6.40;;
3259;SDS011;68938;48.150;14.004;2023-06-26T14:40:19;6.27;;;5.87;;
3259;SDS011;68938;48.150;14.004;2023-06-26T14:42:46;7.40;;;6.80;;
3259;SDS011;68938;48.150;14.004;2023-06-26T14:45:14;6.67;;;6.27;;
3259;SDS011;68938;48.150;14.004;2023-06-26T14:47:42;6.73;;;6.33;;
3259;SDS011;68938;48.150;14.004;2023-06-26T14:50:09;5.63;;;5.23;;
3259;SDS011;68938;48.150;14.004;2023-06-26T14:52:36;5.93;;;5.53;;
3259;SDS011;68938;48.150;14.004;2023-06-26T14:55:03;5.80;;;5.43;;
3259;SDS011;68938;48.150;14.004;2023-06-26T14:57:33;7.27;;;6.77;;
3259;SDS011;68938;48.150;14.004;2023-06-26T15:00:02;6.17;;;5.73;;
3259;SDS011;68938;48.150;14.004;2023-06-26T15:02:30;6.40;;;6.00;;
3259;SDS011;68938;48.150;14.004;2023-06-26T15:04:57;7.17;;;6.67;;
3259;SDS011;68938;48.150;14.004;2023-06-26T15:07:24;7.03;;;6.53;;
3259;SDS011;68938;48.150;14.004;2023-06-26T15:09:51;6.90;;;6.40;;